Viola, California
Current Conditions -  °F | °C
As of 12:33 AM on Friday 19 Dec 2014 (Local Time) from KRDD Reporting Station
Light Rain Light Rain  
Wind Chill: 51°   Ceiling: 800
Heat Index: 51°   Visibility: 8mi
Dew Point: 49°   Wind: 10mph
Humidity: 92%   Direction: 150°SSE
Pressure: 30.08"   Gusts: NA
Location:  40.522°N, 121.854°W
Report Text: KRDD 190833Z AUTO 15009KT 8SM -RA BKN008 OVC016 11/09 A3008 RMK AO2 CIG 007V013 P0002 T01060094
Loading
Personal Weather Stations






























Interactive Weather Map New forecast layout! Learn more

10-Day Weather Forecast

Advertisements
Track Severe Weather on mobile